Aviation Digital Data Service (ADDS)

Output produced by METARs form (1647 UTC 20 January 2019)
found at http://www.aviationweather.gov/metar/data/
 
METAR text: OOMS 201550Z 28006KT CAVOK 21/08 Q1017 NOSIG
Conditions at: OOMS (SEEB INTL/MUSCAT, OM) observed 1550 UTC 20 January 2019
Temperature: 21.0°C (70°F)
Dewpoint: 8.0°C (46°F) [RH = 43%]
Pressure (altimeter): 30.03 inches Hg (1017.0 mb)
Winds: from the W (280 degrees) at 7 MPH (6 knots; 3.1 m/s)
Visibility: 6 or more miles (10+ km)
Ceiling: ceiling and visibility are OK
Clouds: unknown
Weather: no significant weather observed at this time

METAR text: OOMS 201450Z 30007KT CAVOK 21/09 Q1016 NOSIG
Conditions at: OOMS (SEEB INTL/MUSCAT, OM) observed 1450 UTC 20 January 2019
Temperature: 21.0°C (70°F)
Dewpoint: 9.0°C (48°F) [RH = 46%]
Pressure (altimeter): 30.00 inches Hg (1016.0 mb)
Winds: from the WNW (300 degrees) at 8 MPH (7 knots; 3.6 m/s)
Visibility: 6 or more miles (10+ km)
Ceiling: ceiling and visibility are OK
Clouds: unknown
Weather: no significant weather observed at this time

METAR text: OOMS 201350Z 31007KT 290V360 CAVOK 22/08 Q1016 NOSIG
Conditions at: OOMS (SEEB INTL/MUSCAT, OM) observed 1350 UTC 20 January 2019
Temperature: 22.0°C (72°F)
Dewpoint: 8.0°C (46°F) [RH = 41%]
Pressure (altimeter): 30.00 inches Hg (1016.0 mb)
Winds: from the NW (310 degrees) at 8 MPH (7 knots; 3.6 m/s)
Visibility: 6 or more miles (10+ km)
Ceiling: ceiling and visibility are OK
Clouds: unknown
Weather: no significant weather observed at this time

METAR text: OOMS 201250Z 31011KT 9999 FEW025 22/09 Q1016 NOSIG
Conditions at: OOMS (SEEB INTL/MUSCAT, OM) observed 1250 UTC 20 January 2019
Temperature: 22.0°C (72°F)
Dewpoint: 9.0°C (48°F) [RH = 43%]
Pressure (altimeter): 30.00 inches Hg (1016.0 mb)
Winds: from the NW (310 degrees) at 13 MPH (11 knots; 5.7 m/s)
Visibility: 6 or more miles (10+ km)
Ceiling: at least 12,000 feet AGL
Clouds: few clouds at 2500 feet AGL
Weather: no significant weather observed at this time

METAR text: OOMS 201150Z 34011KT 270V360 9999 FEW025 23/11 Q1016 NOSIG
Conditions at: OOMS (SEEB INTL/MUSCAT, OM) observed 1150 UTC 20 January 2019
Temperature: 23.0°C (73°F)
Dewpoint: 11.0°C (52°F) [RH = 47%]
Pressure (altimeter): 30.00 inches Hg (1016.0 mb)
Winds: from the NNW (340 degrees) at 13 MPH (11 knots; 5.7 m/s)
Visibility: 6 or more miles (10+ km)
Ceiling: at least 12,000 feet AGL
Clouds: few clouds at 2500 feet AGL
Weather: no significant weather observed at this time

METAR text: OOMS 201050Z 33014KT 9999 FEW025 23/10 Q1016 NOSIG
Conditions at: OOMS (SEEB INTL/MUSCAT, OM) observed 1050 UTC 20 January 2019
Temperature: 23.0°C (73°F)
Dewpoint: 10.0°C (50°F) [RH = 44%]
Pressure (altimeter): 30.00 inches Hg (1016.0 mb)
Winds: from the NNW (330 degrees) at 16 MPH (14 knots; 7.2 m/s)
Visibility: 6 or more miles (10+ km)
Ceiling: at least 12,000 feet AGL
Clouds: few clouds at 2500 feet AGL
Weather: no significant weather observed at this time

METAR text: OOMS 200950Z 33016KT 9999 FEW025 23/10 Q1016 NOSIG
Conditions at: OOMS (SEEB INTL/MUSCAT, OM) observed 0950 UTC 20 January 2019
Temperature: 23.0°C (73°F)
Dewpoint: 10.0°C (50°F) [RH = 44%]
Pressure (altimeter): 30.00 inches Hg (1016.0 mb)
Winds: from the NNW (330 degrees) at 18 MPH (16 knots; 8.2 m/s)
Visibility: 6 or more miles (10+ km)
Ceiling: at least 12,000 feet AGL
Clouds: few clouds at 2500 feet AGL
Weather: no significant weather observed at this time

METAR text: OOMS 200850Z 32013KT 9999 SCT025 24/11 Q1017 NOSIG
Conditions at: OOMS (SEEB INTL/MUSCAT, OM) observed 0850 UTC 20 January 2019
Temperature: 24.0°C (75°F)
Dewpoint: 11.0°C (52°F) [RH = 44%]
Pressure (altimeter): 30.03 inches Hg (1017.0 mb)
Winds: from the NW (320 degrees) at 15 MPH (13 knots; 6.7 m/s)
Visibility: 6 or more miles (10+ km)
Ceiling: at least 12,000 feet AGL
Clouds: scattered clouds at 2500 feet AGL
Weather: no significant weather observed at this time

METAR text: OOMS 200750Z 32013KT 9999 SCT025 23/12 Q1018 NOSIG
Conditions at: OOMS (SEEB INTL/MUSCAT, OM) observed 0750 UTC 20 January 2019
Temperature: 23.0°C (73°F)
Dewpoint: 12.0°C (54°F) [RH = 50%]
Pressure (altimeter): 30.06 inches Hg (1018.0 mb)
Winds: from the NW (320 degrees) at 15 MPH (13 knots; 6.7 m/s)
Visibility: 6 or more miles (10+ km)
Ceiling: at least 12,000 feet AGL
Clouds: scattered clouds at 2500 feet AGL
Weather: no significant weather observed at this time

METAR text: OOMS 200650Z 33012KT 9999 SCT025 23/13 Q1019 NOSIG
Conditions at: OOMS (SEEB INTL/MUSCAT, OM) observed 0650 UTC 20 January 2019
Temperature: 23.0°C (73°F)
Dewpoint: 13.0°C (55°F) [RH = 53%]
Pressure (altimeter): 30.09 inches Hg (1019.0 mb)
Winds: from the NNW (330 degrees) at 14 MPH (12 knots; 6.2 m/s)
Visibility: 6 or more miles (10+ km)
Ceiling: at least 12,000 feet AGL
Clouds: scattered clouds at 2500 feet AGL
Weather: no significant weather observed at this time

METAR text: OOMS 200550Z 31008KT 9999 FEW025 BKN090 22/13 Q1019 NOSIG
Conditions at: OOMS (SEEB INTL/MUSCAT, OM) observed 0550 UTC 20 January 2019
Temperature: 22.0°C (72°F)
Dewpoint: 13.0°C (55°F) [RH = 57%]
Pressure (altimeter): 30.09 inches Hg (1019.0 mb)
Winds: from the NW (310 degrees) at 9 MPH (8 knots; 4.1 m/s)
Visibility: 6 or more miles (10+ km)
Ceiling: 9000 feet AGL
Clouds: few clouds at 2500 feet AGL
broken clouds at 9000 feet AGL
Weather: no significant weather observed at this time

METAR text: OOMS 200450Z 27008KT 9999 FEW025 BKN090 22/12 Q1019 NOSIG
Conditions at: OOMS (SEEB INTL/MUSCAT, OM) observed 0450 UTC 20 January 2019
Temperature: 22.0°C (72°F)
Dewpoint: 12.0°C (54°F) [RH = 53%]
Pressure (altimeter): 30.09 inches Hg (1019.0 mb)
Winds: from the W (270 degrees) at 9 MPH (8 knots; 4.1 m/s)
Visibility: 6 or more miles (10+ km)
Ceiling: 9000 feet AGL
Clouds: few clouds at 2500 feet AGL
broken clouds at 9000 feet AGL
Weather: no significant weather observed at this time

METAR text: OOMS 200350Z 27007KT 9999 FEW030 BKN090 21/13 Q1018 NOSIG
Conditions at: OOMS (SEEB INTL/MUSCAT, OM) observed 0350 UTC 20 January 2019
Temperature: 21.0°C (70°F)
Dewpoint: 13.0°C (55°F) [RH = 60%]
Pressure (altimeter): 30.06 inches Hg (1018.0 mb)
Winds: from the W (270 degrees) at 8 MPH (7 knots; 3.6 m/s)
Visibility: 6 or more miles (10+ km)
Ceiling: 9000 feet AGL
Clouds: few clouds at 3000 feet AGL
broken clouds at 9000 feet AGL
Weather: no significant weather observed at this time

METAR text: OOMS 200250Z 22005KT 190V250 6000 FEW030 BKN090 21/14 Q1016 NOSIG
Conditions at: OOMS (SEEB INTL/MUSCAT, OM) observed 0250 UTC 20 January 2019
Temperature: 21.0°C (70°F)
Dewpoint: 14.0°C (57°F) [RH = 64%]
Pressure (altimeter): 30.00 inches Hg (1016.0 mb)
Winds: from the SW (220 degrees) at 6 MPH (5 knots; 2.6 m/s)
Visibility: 4 miles ( 6 km)
Ceiling: 9000 feet AGL
Clouds: few clouds at 3000 feet AGL
broken clouds at 9000 feet AGL
Weather: no significant weather observed at this time

METAR text: OOMS 200150Z 28005KT 7000 BKN030 21/15 Q1016 NOSIG
Conditions at: OOMS (SEEB INTL/MUSCAT, OM) observed 0150 UTC 20 January 2019
Temperature: 21.0°C (70°F)
Dewpoint: 15.0°C (59°F) [RH = 69%]
Pressure (altimeter): 30.00 inches Hg (1016.0 mb)
Winds: from the W (280 degrees) at 6 MPH (5 knots; 2.6 m/s)
Visibility: 4 miles ( 7 km)
Ceiling: 3000 feet AGL
Clouds: broken clouds at 3000 feet AGL
Weather: no significant weather observed at this time

METAR text: OOMS 200050Z 23005KT 8000 NSC 20/14 Q1015 NOSIG
Conditions at: OOMS (SEEB INTL/MUSCAT, OM) observed 0050 UTC 20 January 2019
Temperature: 20.0°C (68°F)
Dewpoint: 14.0°C (57°F) [RH = 68%]
Pressure (altimeter): 29.97 inches Hg (1015.0 mb)
Winds: from the SW (230 degrees) at 6 MPH (5 knots; 2.6 m/s)
Visibility: 5 miles ( 8 km)
Ceiling: at least 12,000 feet AGL
Clouds: sky clear below 12,000 feet AGL
Weather: no significant weather observed at this time

METAR text: OOMS 192350Z 23004KT 8000 NSC 20/14 Q1015 NOSIG
Conditions at: OOMS (SEEB INTL/MUSCAT, OM) observed 2350 UTC 19 January 2019
Temperature: 20.0°C (68°F)
Dewpoint: 14.0°C (57°F) [RH = 68%]
Pressure (altimeter): 29.97 inches Hg (1015.0 mb)
Winds: from the SW (230 degrees) at 5 MPH (4 knots; 2.1 m/s)
Visibility: 5 miles ( 8 km)
Ceiling: at least 12,000 feet AGL
Clouds: sky clear below 12,000 feet AGL
Weather: no significant weather observed at this time

METAR text: OOMS 192250Z 26004KT 8000 NSC 21/14 Q1015 NOSIG
Conditions at: OOMS (SEEB INTL/MUSCAT, OM) observed 2250 UTC 19 January 2019
Temperature: 21.0°C (70°F)
Dewpoint: 14.0°C (57°F) [RH = 64%]
Pressure (altimeter): 29.97 inches Hg (1015.0 mb)
Winds: from the W (260 degrees) at 5 MPH (4 knots; 2.1 m/s)
Visibility: 5 miles ( 8 km)
Ceiling: at least 12,000 feet AGL
Clouds: sky clear below 12,000 feet AGL
Weather: no significant weather observed at this time

METAR text: OOMS 192150Z 23004KT 8000 NSC 21/14 Q1015 NOSIG
Conditions at: OOMS (SEEB INTL/MUSCAT, OM) observed 2150 UTC 19 January 2019
Temperature: 21.0°C (70°F)
Dewpoint: 14.0°C (57°F) [RH = 64%]
Pressure (altimeter): 29.97 inches Hg (1015.0 mb)
Winds: from the SW (230 degrees) at 5 MPH (4 knots; 2.1 m/s)
Visibility: 5 miles ( 8 km)
Ceiling: at least 12,000 feet AGL
Clouds: sky clear below 12,000 feet AGL
Weather: no significant weather observed at this time

METAR text: OOMS 192050Z 26004KT 9000 NSC 22/14 Q1016 NOSIG
Conditions at: OOMS (SEEB INTL/MUSCAT, OM) observed 2050 UTC 19 January 2019
Temperature: 22.0°C (72°F)
Dewpoint: 14.0°C (57°F) [RH = 60%]
Pressure (altimeter): 30.00 inches Hg (1016.0 mb)
Winds: from the W (260 degrees) at 5 MPH (4 knots; 2.1 m/s)
Visibility: 6 miles ( 9 km)
Ceiling: at least 12,000 feet AGL
Clouds: sky clear below 12,000 feet AGL
Weather: no significant weather observed at this time

METAR text: OOMS 191950Z 27004KT 8000 NSC 22/14 Q1016 NOSIG
Conditions at: OOMS (SEEB INTL/MUSCAT, OM) observed 1950 UTC 19 January 2019
Temperature: 22.0°C (72°F)
Dewpoint: 14.0°C (57°F) [RH = 60%]
Pressure (altimeter): 30.00 inches Hg (1016.0 mb)
Winds: from the W (270 degrees) at 5 MPH (4 knots; 2.1 m/s)
Visibility: 5 miles ( 8 km)
Ceiling: at least 12,000 feet AGL
Clouds: sky clear below 12,000 feet AGL
Weather: no significant weather observed at this time

METAR text: OOMS 191850Z 22003KT 190V250 8000 NSC 23/15 Q1016 NOSIG
Conditions at: OOMS (SEEB INTL/MUSCAT, OM) observed 1850 UTC 19 January 2019
Temperature: 23.0°C (73°F)
Dewpoint: 15.0°C (59°F) [RH = 61%]
Pressure (altimeter): 30.00 inches Hg (1016.0 mb)
Winds: from the SW (220 degrees) at 3 MPH (3 knots; 1.5 m/s)
Visibility: 5 miles ( 8 km)
Ceiling: at least 12,000 feet AGL
Clouds: sky clear below 12,000 feet AGL
Weather: no significant weather observed at this time

METAR text: OOMS 191750Z 27005KT 9000 BKN030 23/15 Q1016 NOSIG
Conditions at: OOMS (SEEB INTL/MUSCAT, OM) observed 1750 UTC 19 January 2019
Temperature: 23.0°C (73°F)
Dewpoint: 15.0°C (59°F) [RH = 61%]
Pressure (altimeter): 30.00 inches Hg (1016.0 mb)
Winds: from the W (270 degrees) at 6 MPH (5 knots; 2.6 m/s)
Visibility: 6 miles ( 9 km)
Ceiling: 3000 feet AGL
Clouds: broken clouds at 3000 feet AGL
Weather: no significant weather observed at this time

METAR text: OOMS 191650Z 30005KT 9000 OVC020 23/15 Q1016 NOSIG
Conditions at: OOMS (SEEB INTL/MUSCAT, OM) observed 1650 UTC 19 January 2019
Temperature: 23.0°C (73°F)
Dewpoint: 15.0°C (59°F) [RH = 61%]
Pressure (altimeter): 30.00 inches Hg (1016.0 mb)
Winds: from the WNW (300 degrees) at 6 MPH (5 knots; 2.6 m/s)
Visibility: 6 miles ( 9 km)
Ceiling: 2000 feet AGL
Clouds: overcast cloud deck at 2000 feet AGL
Weather: no significant weather observed at this time

METAR text: OOMS 191550Z 34006KT 9000 OVC120 23/16 Q1016 NOSIG
Conditions at: OOMS (SEEB INTL/MUSCAT, OM) observed 1550 UTC 19 January 2019
Temperature: 23.0°C (73°F)
Dewpoint: 16.0°C (61°F) [RH = 65%]
Pressure (altimeter): 30.00 inches Hg (1016.0 mb)
Winds: from the NNW (340 degrees) at 7 MPH (6 knots; 3.1 m/s)
Visibility: 6 miles ( 9 km)
Ceiling: 12000 feet AGL
Clouds: overcast cloud deck at 12000 feet AGL
Weather: no significant weather observed at this time

METAR text: OOMS 191450Z 34006KT 9000 OVC120 23/16 Q1015 NOSIG
Conditions at: OOMS (SEEB INTL/MUSCAT, OM) observed 1450 UTC 19 January 2019
Temperature: 23.0°C (73°F)
Dewpoint: 16.0°C (61°F) [RH = 65%]
Pressure (altimeter): 29.97 inches Hg (1015.0 mb)
Winds: from the NNW (340 degrees) at 7 MPH (6 knots; 3.1 m/s)
Visibility: 6 miles ( 9 km)
Ceiling: 12000 feet AGL
Clouds: overcast cloud deck at 12000 feet AGL
Weather: no significant weather observed at this time

METAR text: OOMS 191350Z 34004KT 310V010 8000 FEW030 OVC120 23/17 Q1014 NOSIG
Conditions at: OOMS (SEEB INTL/MUSCAT, OM) observed 1350 UTC 19 January 2019
Temperature: 23.0°C (73°F)
Dewpoint: 17.0°C (63°F) [RH = 69%]
Pressure (altimeter): 29.94 inches Hg (1014.0 mb)
Winds: from the NNW (340 degrees) at 5 MPH (4 knots; 2.1 m/s)
Visibility: 5 miles ( 8 km)
Ceiling: 12000 feet AGL
Clouds: few clouds at 3000 feet AGL
overcast cloud deck at 12000 feet AGL
Weather: no significant weather observed at this time

METAR text: OOMS 191250Z 33009KT 8000 FEW030 OVC120 23/16 Q1014 NOSIG
Conditions at: OOMS (SEEB INTL/MUSCAT, OM) observed 1250 UTC 19 January 2019
Temperature: 23.0°C (73°F)
Dewpoint: 16.0°C (61°F) [RH = 65%]
Pressure (altimeter): 29.94 inches Hg (1014.0 mb)
Winds: from the NNW (330 degrees) at 10 MPH (9 knots; 4.6 m/s)
Visibility: 5 miles ( 8 km)
Ceiling: 12000 feet AGL
Clouds: few clouds at 3000 feet AGL
overcast cloud deck at 12000 feet AGL
Weather: no significant weather observed at this time

METAR text: OOMS 191150Z 33009KT 8000 FEW030 OVC120 24/17 Q1014 NOSIG
Conditions at: OOMS (SEEB INTL/MUSCAT, OM) observed 1150 UTC 19 January 2019
Temperature: 24.0°C (75°F)
Dewpoint: 17.0°C (63°F) [RH = 65%]
Pressure (altimeter): 29.94 inches Hg (1014.0 mb)
Winds: from the NNW (330 degrees) at 10 MPH (9 knots; 4.6 m/s)
Visibility: 5 miles ( 8 km)
Ceiling: 12000 feet AGL
Clouds: few clouds at 3000 feet AGL
overcast cloud deck at 12000 feet AGL
Weather: no significant weather observed at this time

METAR text: OOMS 191050Z 33010KT 8000 FEW030 24/17 Q1014 NOSIG
Conditions at: OOMS (SEEB INTL/MUSCAT, OM) observed 1050 UTC 19 January 2019
Temperature: 24.0°C (75°F)
Dewpoint: 17.0°C (63°F) [RH = 65%]
Pressure (altimeter): 29.94 inches Hg (1014.0 mb)
Winds: from the NNW (330 degrees) at 12 MPH (10 knots; 5.1 m/s)
Visibility: 5 miles ( 8 km)
Ceiling: at least 12,000 feet AGL
Clouds: few clouds at 3000 feet AGL
Weather: no significant weather observed at this time

METAR text: OOMS 190950Z 33011KT 8000 FEW030 24/18 Q1014 NOSIG
Conditions at: OOMS (SEEB INTL/MUSCAT, OM) observed 0950 UTC 19 January 2019
Temperature: 24.0°C (75°F)
Dewpoint: 18.0°C (64°F) [RH = 69%]
Pressure (altimeter): 29.94 inches Hg (1014.0 mb)
Winds: from the NNW (330 degrees) at 13 MPH (11 knots; 5.7 m/s)
Visibility: 5 miles ( 8 km)
Ceiling: at least 12,000 feet AGL
Clouds: few clouds at 3000 feet AGL
Weather: no significant weather observed at this time

METAR text: OOMS 190850Z 33011KT 8000 FEW030 25/18 Q1015 NOSIG
Conditions at: OOMS (SEEB INTL/MUSCAT, OM) observed 0850 UTC 19 January 2019
Temperature: 25.0°C (77°F)
Dewpoint: 18.0°C (64°F) [RH = 65%]
Pressure (altimeter): 29.97 inches Hg (1015.0 mb)
Winds: from the NNW (330 degrees) at 13 MPH (11 knots; 5.7 m/s)
Visibility: 5 miles ( 8 km)
Ceiling: at least 12,000 feet AGL
Clouds: few clouds at 3000 feet AGL
Weather: no significant weather observed at this time

METAR text: OOMS 190750Z 34011KT 8000 FEW030 25/19 Q1016 NOSIG
Conditions at: OOMS (SEEB INTL/MUSCAT, OM) observed 0750 UTC 19 January 2019
Temperature: 25.0°C (77°F)
Dewpoint: 19.0°C (66°F) [RH = 69%]
Pressure (altimeter): 30.00 inches Hg (1016.0 mb)
Winds: from the NNW (340 degrees) at 13 MPH (11 knots; 5.7 m/s)
Visibility: 5 miles ( 8 km)
Ceiling: at least 12,000 feet AGL
Clouds: few clouds at 3000 feet AGL
Weather: no significant weather observed at this time

METAR text: OOMS 190650Z 33008KT 8000 SCT025 25/19 Q1016 NOSIG
Conditions at: OOMS (SEEB INTL/MUSCAT, OM) observed 0650 UTC 19 January 2019
Temperature: 25.0°C (77°F)
Dewpoint: 19.0°C (66°F) [RH = 69%]
Pressure (altimeter): 30.00 inches Hg (1016.0 mb)
Winds: from the NNW (330 degrees) at 9 MPH (8 knots; 4.1 m/s)
Visibility: 5 miles ( 8 km)
Ceiling: at least 12,000 feet AGL
Clouds: scattered clouds at 2500 feet AGL
Weather: no significant weather observed at this time

METAR text: OOMS 190550Z 30006KT 8000 BKN025 24/20 Q1017 NOSIG
Conditions at: OOMS (SEEB INTL/MUSCAT, OM) observed 0550 UTC 19 January 2019
Temperature: 24.0°C (75°F)
Dewpoint: 20.0°C (68°F) [RH = 78%]
Pressure (altimeter): 30.03 inches Hg (1017.0 mb)
Winds: from the WNW (300 degrees) at 7 MPH (6 knots; 3.1 m/s)
Visibility: 5 miles ( 8 km)
Ceiling: 2500 feet AGL
Clouds: broken clouds at 2500 feet AGL
Weather: no significant weather observed at this time

METAR text: OOMS 190450Z 22004KT 200V260 8000 FEW030 23/20 Q1016 NOSIG
Conditions at: OOMS (SEEB INTL/MUSCAT, OM) observed 0450 UTC 19 January 2019
Temperature: 23.0°C (73°F)
Dewpoint: 20.0°C (68°F) [RH = 83%]
Pressure (altimeter): 30.00 inches Hg (1016.0 mb)
Winds: from the SW (220 degrees) at 5 MPH (4 knots; 2.1 m/s)
Visibility: 5 miles ( 8 km)
Ceiling: at least 12,000 feet AGL
Clouds: few clouds at 3000 feet AGL
Weather: no significant weather observed at this time

Forecast for: OOMS (SEEB INTL/MUSCAT, OM)
Text: TAF OOMS 201100Z 2012/2118 35012KT 8000 SCT025
Forecast period: 1200 to 1600 UTC 20 January 2019
Forecast type: FROM: standard forecast or significant change
Winds: from the N (350 degrees) at 14 MPH (12 knots; 6.2 m/s)
Visibility: 5 miles (8 km)
Ceiling: at least 12,000 feet AGL
Clouds: scattered clouds at 2500 feet AGL
Weather: no significant weather forecast for this period
Text: BECMG 2016/2018 25008KT
Forecast period: 1600 UTC 20 January 2019 to 0600 UTC 21 January 2019
Forecast type: BECOMING: Conditions expected to become as follows by 1800 UTC 20 January 2019
Winds: from the WSW (250 degrees) at 9 MPH (8 knots; 4.1 m/s)
Visibility: 5 miles (8 km)
Ceiling: at least 12,000 feet AGL
Clouds: scattered clouds at 2500 feet AGL
Weather: no significant weather forecast for this period
Text: BECMG 2106/2108 03010KT
Forecast period: 0600 to 1500 UTC 21 January 2019
Forecast type: BECOMING: Conditions expected to become as follows by 0800 UTC 21 January 2019
Winds: from the NNE (30 degrees) at 12 MPH (10 knots; 5.1 m/s)
Visibility: 5 miles (8 km)
Ceiling: at least 12,000 feet AGL
Clouds: scattered clouds at 2500 feet AGL
Weather: no significant weather forecast for this period
Text: BECMG 2115/2117 VRB02KT
Forecast period: 1500 to 1800 UTC 21 January 2019
Forecast type: BECOMING: Conditions expected to become as follows by 1700 UTC 21 January 2019
Winds: variable direction winds at 2 MPH (2 knots; 1.0 m/s)
Visibility: 5 miles (8 km)
Ceiling: at least 12,000 feet AGL
Clouds: scattered clouds at 2500 feet AGL
Weather: no significant weather forecast for this period